sensor_id;sensor_type;location;lat;lon;timestamp;P1;durP1;ratioP1;P2;durP2;ratioP2
54935;SDS011;40838;50.676;7.838;2024-02-21T00:01:58;13.07;;;6.72;;
54935;SDS011;40838;50.676;7.838;2024-02-21T00:04:25;14.80;;;7.63;;
54935;SDS011;40838;50.676;7.838;2024-02-21T00:06:52;22.17;;;8.65;;
54935;SDS011;40838;50.676;7.838;2024-02-21T00:09:19;26.92;;;8.00;;
54935;SDS011;40838;50.676;7.838;2024-02-21T00:11:46;21.83;;;8.15;;
54935;SDS011;40838;50.676;7.838;2024-02-21T00:14:15;20.67;;;8.77;;
54935;SDS011;40838;50.676;7.838;2024-02-21T00:16:42;19.17;;;8.95;;
54935;SDS011;40838;50.676;7.838;2024-02-21T00:19:10;20.17;;;8.52;;
54935;SDS011;40838;50.676;7.838;2024-02-21T00:21:37;19.23;;;7.30;;
54935;SDS011;40838;50.676;7.838;2024-02-21T00:24:04;28.17;;;9.32;;
54935;SDS011;40838;50.676;7.838;2024-02-21T00:26:32;22.33;;;7.63;;
54935;SDS011;40838;50.676;7.838;2024-02-21T00:28:59;17.38;;;8.02;;
54935;SDS011;40838;50.676;7.838;2024-02-21T00:31:27;23.05;;;8.35;;
54935;SDS011;40838;50.676;7.838;2024-02-21T00:33:54;23.95;;;7.95;;
54935;SDS011;40838;50.676;7.838;2024-02-21T00:36:21;22.33;;;8.10;;
54935;SDS011;40838;50.676;7.838;2024-02-21T00:38:48;21.50;;;7.60;;
54935;SDS011;40838;50.676;7.838;2024-02-21T00:41:15;20.83;;;8.02;;
54935;SDS011;40838;50.676;7.838;2024-02-21T00:43:42;19.75;;;7.90;;
54935;SDS011;40838;50.676;7.838;2024-02-21T00:46:09;20.42;;;8.27;;
54935;SDS011;40838;50.676;7.838;2024-02-21T00:48:38;26.42;;;8.07;;
54935;SDS011;40838;50.676;7.838;2024-02-21T00:51:06;22.90;;;8.48;;
54935;SDS011;40838;50.676;7.838;2024-02-21T00:53:33;23.90;;;9.35;;
54935;SDS011;40838;50.676;7.838;2024-02-21T00:56:03;18.60;;;6.88;;
54935;SDS011;40838;50.676;7.838;2024-02-21T00:58:31;18.23;;;7.20;;
54935;SDS011;40838;50.676;7.838;2024-02-21T01:00:58;25.42;;;7.68;;
54935;SDS011;40838;50.676;7.838;2024-02-21T01:03:25;17.83;;;6.65;;
54935;SDS011;40838;50.676;7.838;2024-02-21T01:05:54;20.58;;;7.90;;
54935;SDS011;40838;50.676;7.838;2024-02-21T01:08:21;21.02;;;8.35;;
54935;SDS011;40838;50.676;7.838;2024-02-21T01:10:48;21.35;;;8.40;;
54935;SDS011;40838;50.676;7.838;2024-02-21T01:13:15;25.23;;;8.18;;
54935;SDS011;40838;50.676;7.838;2024-02-21T01:15:42;22.08;;;7.22;;
54935;SDS011;40838;50.676;7.838;2024-02-21T01:18:09;24.63;;;7.45;;
54935;SDS011;40838;50.676;7.838;2024-02-21T01:20:36;19.50;;;7.68;;
54935;SDS011;40838;50.676;7.838;2024-02-21T01:23:05;20.98;;;7.22;;
54935;SDS011;40838;50.676;7.838;2024-02-21T01:25:32;25.70;;;8.15;;
54935;SDS011;40838;50.676;7.838;2024-02-21T01:27:59;24.23;;;7.25;;
54935;SDS011;40838;50.676;7.838;2024-02-21T01:30:26;22.33;;;6.80;;
54935;SDS011;40838;50.676;7.838;2024-02-21T01:32:53;20.90;;;6.70;;
54935;SDS011;40838;50.676;7.838;2024-02-21T01:35:20;16.83;;;7.00;;
54935;SDS011;40838;50.676;7.838;2024-02-21T01:37:50;18.25;;;8.20;;
54935;SDS011;40838;50.676;7.838;2024-02-21T01:40:19;20.10;;;7.43;;
54935;SDS011;40838;50.676;7.838;2024-02-21T01:42:46;16.17;;;7.10;;
54935;SDS011;40838;50.676;7.838;2024-02-21T01:45:13;24.80;;;8.02;;
54935;SDS011;40838;50.676;7.838;2024-02-21T01:47:40;17.67;;;7.90;;
54935;SDS011;40838;50.676;7.838;2024-02-21T01:50:07;26.55;;;9.18;;
54935;SDS011;40838;50.676;7.838;2024-02-21T01:52:34;20.08;;;6.70;;
54935;SDS011;40838;50.676;7.838;2024-02-21T01:55:01;18.25;;;7.72;;
54935;SDS011;40838;50.676;7.838;2024-02-21T01:57:30;17.65;;;6.20;;
54935;SDS011;40838;50.676;7.838;2024-02-21T01:59:57;19.95;;;7.20;;
54935;SDS011;40838;50.676;7.838;2024-02-21T02:02:24;19.23;;;7.55;;
54935;SDS011;40838;50.676;7.838;2024-02-21T02:04:51;16.70;;;6.68;;
54935;SDS011;40838;50.676;7.838;2024-02-21T02:07:18;20.35;;;7.03;;
54935;SDS011;40838;50.676;7.838;2024-02-21T02:09:45;21.00;;;6.95;;
54935;SDS011;40838;50.676;7.838;2024-02-21T02:12:12;17.25;;;7.18;;
54935;SDS011;40838;50.676;7.838;2024-02-21T02:14:40;15.65;;;6.65;;
54935;SDS011;40838;50.676;7.838;2024-02-21T02:17:07;17.25;;;7.35;;
54935;SDS011;40838;50.676;7.838;2024-02-21T02:19:35;20.70;;;7.28;;
54935;SDS011;40838;50.676;7.838;2024-02-21T02:22:09;22.15;;;7.18;;
54935;SDS011;40838;50.676;7.838;2024-02-21T02:24:42;20.80;;;7.05;;
54935;SDS011;40838;50.676;7.838;2024-02-21T02:27:10;18.08;;;6.57;;
54935;SDS011;40838;50.676;7.838;2024-02-21T02:29:37;17.60;;;7.60;;
54935;SDS011;40838;50.676;7.838;2024-02-21T02:32:43;17.27;;;6.40;;
54935;SDS011;40838;50.676;7.838;2024-02-21T02:35:11;19.00;;;6.72;;
54935;SDS011;40838;50.676;7.838;2024-02-21T02:37:38;17.67;;;7.38;;
54935;SDS011;40838;50.676;7.838;2024-02-21T02:40:08;21.40;;;7.72;;
54935;SDS011;40838;50.676;7.838;2024-02-21T02:42:35;17.13;;;6.93;;
54935;SDS011;40838;50.676;7.838;2024-02-21T02:45:02;10.23;;;5.63;;
54935;SDS011;40838;50.676;7.838;2024-02-21T02:47:29;21.40;;;6.90;;
54935;SDS011;40838;50.676;7.838;2024-02-21T02:49:56;17.20;;;6.70;;
54935;SDS011;40838;50.676;7.838;2024-02-21T02:52:23;18.08;;;6.38;;
54935;SDS011;40838;50.676;7.838;2024-02-21T02:54:50;18.25;;;6.70;;
54935;SDS011;40838;50.676;7.838;2024-02-21T02:57:22;15.32;;;5.97;;
54935;SDS011;40838;50.676;7.838;2024-02-21T02:59:49;17.58;;;7.03;;
54935;SDS011;40838;50.676;7.838;2024-02-21T03:02:16;16.42;;;6.25;;
54935;SDS011;40838;50.676;7.838;2024-02-21T03:04:44;11.63;;;6.00;;
54935;SDS011;40838;50.676;7.838;2024-02-21T03:07:11;17.08;;;7.30;;
54935;SDS011;40838;50.676;7.838;2024-02-21T03:09:39;16.20;;;6.50;;
54935;SDS011;40838;50.676;7.838;2024-02-21T03:12:08;17.40;;;6.68;;
54935;SDS011;40838;50.676;7.838;2024-02-21T03:14:36;15.88;;;6.75;;
54935;SDS011;40838;50.676;7.838;2024-02-21T03:17:03;17.40;;;6.18;;
54935;SDS011;40838;50.676;7.838;2024-02-21T03:19:31;15.23;;;6.20;;
54935;SDS011;40838;50.676;7.838;2024-02-21T03:21:58;15.68;;;6.80;;
54935;SDS011;40838;50.676;7.838;2024-02-21T03:24:25;18.60;;;6.28;;
54935;SDS011;40838;50.676;7.838;2024-02-21T03:26:52;23.88;;;6.60;;
54935;SDS011;40838;50.676;7.838;2024-02-21T03:29:19;19.17;;;6.07;;
54935;SDS011;40838;50.676;7.838;2024-02-21T03:31:48;17.80;;;7.03;;
54935;SDS011;40838;50.676;7.838;2024-02-21T03:34:14;30.95;;;6.47;;
54935;SDS011;40838;50.676;7.838;2024-02-21T03:36:42;26.35;;;6.63;;
54935;SDS011;40838;50.676;7.838;2024-02-21T03:39:09;19.55;;;6.43;;
54935;SDS011;40838;50.676;7.838;2024-02-21T03:41:36;22.45;;;7.20;;
54935;SDS011;40838;50.676;7.838;2024-02-21T03:44:03;21.02;;;6.80;;
54935;SDS011;40838;50.676;7.838;2024-02-21T03:46:30;18.13;;;6.72;;
54935;SDS011;40838;50.676;7.838;2024-02-21T03:49:01;14.35;;;6.07;;
54935;SDS011;40838;50.676;7.838;2024-02-21T03:51:28;17.65;;;5.95;;
54935;SDS011;40838;50.676;7.838;2024-02-21T03:53:55;25.50;;;6.35;;
54935;SDS011;40838;50.676;7.838;2024-02-21T03:56:22;18.77;;;5.88;;
54935;SDS011;40838;50.676;7.838;2024-02-21T03:58:49;15.82;;;6.43;;
54935;SDS011;40838;50.676;7.838;2024-02-21T04:01:16;24.52;;;6.95;;
54935;SDS011;40838;50.676;7.838;2024-02-21T04:03:43;21.63;;;6.65;;
54935;SDS011;40838;50.676;7.838;2024-02-21T04:06:12;23.20;;;6.28;;
54935;SDS011;40838;50.676;7.838;2024-02-21T04:08:39;14.23;;;5.47;;
54935;SDS011;40838;50.676;7.838;2024-02-21T04:11:06;21.05;;;6.70;;
54935;SDS011;40838;50.676;7.838;2024-02-21T04:13:33;17.52;;;6.00;;
54935;SDS011;40838;50.676;7.838;2024-02-21T04:16:00;19.95;;;7.05;;
54935;SDS011;40838;50.676;7.838;2024-02-21T04:18:28;18.45;;;5.88;;
54935;SDS011;40838;50.676;7.838;2024-02-21T04:20:55;20.92;;;6.30;;
54935;SDS011;40838;50.676;7.838;2024-02-21T04:23:24;14.80;;;5.75;;
54935;SDS011;40838;50.676;7.838;2024-02-21T04:25:51;16.17;;;6.32;;
54935;SDS011;40838;50.676;7.838;2024-02-21T04:28:18;24.30;;;7.75;;
54935;SDS011;40838;50.676;7.838;2024-02-21T04:30:45;23.45;;;9.90;;
54935;SDS011;40838;50.676;7.838;2024-02-21T04:33:13;23.30;;;7.07;;
54935;SDS011;40838;50.676;7.838;2024-02-21T04:35:40;20.02;;;7.80;;
54935;SDS011;40838;50.676;7.838;2024-02-21T04:38:07;19.25;;;6.55;;
54935;SDS011;40838;50.676;7.838;2024-02-21T04:40:36;15.23;;;6.25;;
54935;SDS011;40838;50.676;7.838;2024-02-21T04:43:03;21.40;;;6.25;;
54935;SDS011;40838;50.676;7.838;2024-02-21T04:45:30;20.75;;;6.13;;
54935;SDS011;40838;50.676;7.838;2024-02-21T04:47:57;22.60;;;6.97;;
54935;SDS011;40838;50.676;7.838;2024-02-21T04:50:24;24.17;;;7.13;;
54935;SDS011;40838;50.676;7.838;2024-02-21T04:52:51;15.82;;;5.32;;
54935;SDS011;40838;50.676;7.838;2024-02-21T04:55:18;12.15;;;5.53;;
54935;SDS011;40838;50.676;7.838;2024-02-21T04:57:46;20.70;;;6.88;;
54935;SDS011;40838;50.676;7.838;2024-02-21T05:00:14;20.30;;;6.35;;
54935;SDS011;40838;50.676;7.838;2024-02-21T05:02:41;21.80;;;6.50;;
54935;SDS011;40838;50.676;7.838;2024-02-21T05:05:08;20.38;;;6.57;;
54935;SDS011;40838;50.676;7.838;2024-02-21T05:07:35;24.35;;;7.88;;
54935;SDS011;40838;50.676;7.838;2024-02-21T05:10:03;15.57;;;5.25;;
54935;SDS011;40838;50.676;7.838;2024-02-21T05:12:30;21.25;;;5.85;;
54935;SDS011;40838;50.676;7.838;2024-02-21T05:14:58;23.58;;;6.03;;
54935;SDS011;40838;50.676;7.838;2024-02-21T05:17:25;20.13;;;6.43;;
54935;SDS011;40838;50.676;7.838;2024-02-21T05:19:53;20.45;;;6.50;;
54935;SDS011;40838;50.676;7.838;2024-02-21T05:22:20;18.25;;;6.22;;
54935;SDS011;40838;50.676;7.838;2024-02-21T05:24:47;16.98;;;6.28;;
54935;SDS011;40838;50.676;7.838;2024-02-21T05:27:14;26.70;;;6.30;;
54935;SDS011;40838;50.676;7.838;2024-02-21T05:29:41;17.60;;;7.35;;
54935;SDS011;40838;50.676;7.838;2024-02-21T05:32:09;15.55;;;5.25;;
54935;SDS011;40838;50.676;7.838;2024-02-21T05:34:36;17.75;;;6.53;;
54935;SDS011;40838;50.676;7.838;2024-02-21T05:37:04;18.35;;;5.95;;
54935;SDS011;40838;50.676;7.838;2024-02-21T05:39:31;19.67;;;5.70;;
54935;SDS011;40838;50.676;7.838;2024-02-21T05:41:58;21.52;;;7.07;;
54935;SDS011;40838;50.676;7.838;2024-02-21T05:44:25;18.17;;;6.43;;
54935;SDS011;40838;50.676;7.838;2024-02-21T05:46:52;14.93;;;5.15;;
54935;SDS011;40838;50.676;7.838;2024-02-21T05:49:21;14.25;;;5.63;;
54935;SDS011;40838;50.676;7.838;2024-02-21T05:51:48;23.27;;;6.43;;
54935;SDS011;40838;50.676;7.838;2024-02-21T05:54:15;13.38;;;5.40;;
54935;SDS011;40838;50.676;7.838;2024-02-21T05:56:46;16.48;;;5.93;;
54935;SDS011;40838;50.676;7.838;2024-02-21T05:59:13;20.73;;;5.65;;
54935;SDS011;40838;50.676;7.838;2024-02-21T06:01:40;14.75;;;5.82;;
54935;SDS011;40838;50.676;7.838;2024-02-21T06:04:10;21.15;;;5.70;;
54935;SDS011;40838;50.676;7.838;2024-02-21T06:06:39;22.45;;;5.78;;
54935;SDS011;40838;50.676;7.838;2024-02-21T06:09:06;15.68;;;6.22;;
54935;SDS011;40838;50.676;7.838;2024-02-21T06:11:34;15.52;;;5.15;;
54935;SDS011;40838;50.676;7.838;2024-02-21T06:14:03;19.50;;;6.22;;
54935;SDS011;40838;50.676;7.838;2024-02-21T06:16:31;26.63;;;5.43;;
54935;SDS011;40838;50.676;7.838;2024-02-21T06:18:58;13.05;;;4.93;;
54935;SDS011;40838;50.676;7.838;2024-02-21T06:21:28;13.68;;;5.43;;
54935;SDS011;40838;50.676;7.838;2024-02-21T06:23:57;18.52;;;5.20;;
54935;SDS011;40838;50.676;7.838;2024-02-21T06:26:24;17.73;;;5.60;;
54935;SDS011;40838;50.676;7.838;2024-02-21T06:28:51;20.23;;;6.03;;
54935;SDS011;40838;50.676;7.838;2024-02-21T06:31:21;18.40;;;5.28;;
54935;SDS011;40838;50.676;7.838;2024-02-21T06:33:48;17.23;;;5.28;;
54935;SDS011;40838;50.676;7.838;2024-02-21T06:36:15;15.32;;;6.10;;
54935;SDS011;40838;50.676;7.838;2024-02-21T06:38:42;19.33;;;5.38;;
54935;SDS011;40838;50.676;7.838;2024-02-21T06:41:15;19.90;;;5.72;;
54935;SDS011;40838;50.676;7.838;2024-02-21T06:43:43;27.10;;;5.90;;
54935;SDS011;40838;50.676;7.838;2024-02-21T06:46:11;14.48;;;5.53;;
54935;SDS011;40838;50.676;7.838;2024-02-21T06:48:38;15.57;;;4.80;;
54935;SDS011;40838;50.676;7.838;2024-02-21T06:51:05;15.50;;;5.05;;
54935;SDS011;40838;50.676;7.838;2024-02-21T06:53:32;13.07;;;4.97;;
54935;SDS011;40838;50.676;7.838;2024-02-21T06:55:59;13.68;;;4.82;;
54935;SDS011;40838;50.676;7.838;2024-02-21T06:58:28;20.08;;;5.13;;
54935;SDS011;40838;50.676;7.838;2024-02-21T07:00:55;11.88;;;4.63;;
54935;SDS011;40838;50.676;7.838;2024-02-21T07:03:22;20.73;;;5.80;;
54935;SDS011;40838;50.676;7.838;2024-02-21T07:05:50;14.85;;;5.40;;
54935;SDS011;40838;50.676;7.838;2024-02-21T07:08:17;21.23;;;6.22;;
54935;SDS011;40838;50.676;7.838;2024-02-21T07:10:44;14.52;;;5.25;;
54935;SDS011;40838;50.676;7.838;2024-02-21T07:13:11;14.38;;;5.43;;
54935;SDS011;40838;50.676;7.838;2024-02-21T07:15:40;15.02;;;5.05;;
54935;SDS011;40838;50.676;7.838;2024-02-21T07:18:07;28.23;;;5.20;;
54935;SDS011;40838;50.676;7.838;2024-02-21T07:20:34;21.80;;;6.10;;
54935;SDS011;40838;50.676;7.838;2024-02-21T07:23:02;14.82;;;4.80;;
54935;SDS011;40838;50.676;7.838;2024-02-21T07:25:30;21.48;;;6.80;;
54935;SDS011;40838;50.676;7.838;2024-02-21T07:27:57;16.98;;;5.55;;
54935;SDS011;40838;50.676;7.838;2024-02-21T07:30:24;14.35;;;5.68;;
54935;SDS011;40838;50.676;7.838;2024-02-21T07:32:53;11.43;;;4.78;;
54935;SDS011;40838;50.676;7.838;2024-02-21T07:35:21;17.27;;;6.30;;
54935;SDS011;40838;50.676;7.838;2024-02-21T07:37:51;21.98;;;5.95;;
54935;SDS011;40838;50.676;7.838;2024-02-21T07:40:18;18.50;;;5.93;;
54935;SDS011;40838;50.676;7.838;2024-02-21T07:42:45;13.98;;;5.85;;
54935;SDS011;40838;50.676;7.838;2024-02-21T07:45:12;15.82;;;6.10;;
54935;SDS011;40838;50.676;7.838;2024-02-21T07:47:39;19.65;;;6.90;;
54935;SDS011;40838;50.676;7.838;2024-02-21T07:50:09;16.30;;;7.32;;
54935;SDS011;40838;50.676;7.838;2024-02-21T07:52:37;19.38;;;6.40;;
54935;SDS011;40838;50.676;7.838;2024-02-21T07:55:06;12.95;;;5.68;;
54935;SDS011;40838;50.676;7.838;2024-02-21T07:57:35;15.43;;;5.90;;
54935;SDS011;40838;50.676;7.838;2024-02-21T08:00:03;22.42;;;7.03;;
54935;SDS011;40838;50.676;7.838;2024-02-21T08:02:37;20.17;;;6.00;;
54935;SDS011;40838;50.676;7.838;2024-02-21T08:05:05;21.17;;;8.45;;
54935;SDS011;40838;50.676;7.838;2024-02-21T08:07:34;21.27;;;5.97;;
54935;SDS011;40838;50.676;7.838;2024-02-21T08:10:01;15.38;;;6.50;;
54935;SDS011;40838;50.676;7.838;2024-02-21T08:12:28;14.02;;;5.82;;
54935;SDS011;40838;50.676;7.838;2024-02-21T08:14:55;15.95;;;6.25;;
54935;SDS011;40838;50.676;7.838;2024-02-21T08:17:22;16.63;;;5.90;;
54935;SDS011;40838;50.676;7.838;2024-02-21T08:19:49;17.50;;;6.35;;
54935;SDS011;40838;50.676;7.838;2024-02-21T08:22:16;17.27;;;7.47;;
54935;SDS011;40838;50.676;7.838;2024-02-21T08:24:45;18.77;;;7.60;;
54935;SDS011;40838;50.676;7.838;2024-02-21T08:27:12;21.63;;;6.78;;
54935;SDS011;40838;50.676;7.838;2024-02-21T08:29:39;29.85;;;14.15;;
54935;SDS011;40838;50.676;7.838;2024-02-21T08:32:06;19.30;;;6.82;;
54935;SDS011;40838;50.676;7.838;2024-02-21T08:34:34;18.95;;;8.45;;
54935;SDS011;40838;50.676;7.838;2024-02-21T08:37:01;20.80;;;6.72;;
54935;SDS011;40838;50.676;7.838;2024-02-21T08:39:28;13.40;;;5.85;;
54935;SDS011;40838;50.676;7.838;2024-02-21T08:41:58;13.88;;;5.20;;
54935;SDS011;40838;50.676;7.838;2024-02-21T08:44:27;15.57;;;6.40;;
54935;SDS011;40838;50.676;7.838;2024-02-21T08:46:54;14.13;;;4.70;;
54935;SDS011;40838;50.676;7.838;2024-02-21T08:49:22;17.00;;;5.13;;
54935;SDS011;40838;50.676;7.838;2024-02-21T08:51:49;14.13;;;4.20;;
54935;SDS011;40838;50.676;7.838;2024-02-21T08:54:16;17.35;;;5.22;;
54935;SDS011;40838;50.676;7.838;2024-02-21T08:56:43;13.70;;;4.68;;
54935;SDS011;40838;50.676;7.838;2024-02-21T08:59:12;13.40;;;4.85;;
54935;SDS011;40838;50.676;7.838;2024-02-21T09:01:41;17.40;;;4.80;;
54935;SDS011;40838;50.676;7.838;2024-02-21T09:04:08;14.57;;;5.78;;
54935;SDS011;40838;50.676;7.838;2024-02-21T09:06:36;19.15;;;5.03;;
54935;SDS011;40838;50.676;7.838;2024-02-21T09:09:07;18.75;;;5.80;;
54935;SDS011;40838;50.676;7.838;2024-02-21T09:11:35;16.13;;;5.43;;
54935;SDS011;40838;50.676;7.838;2024-02-21T09:14:02;12.35;;;4.75;;
54935;SDS011;40838;50.676;7.838;2024-02-21T09:16:32;18.25;;;5.70;;
54935;SDS011;40838;50.676;7.838;2024-02-21T09:18:59;11.73;;;4.80;;
54935;SDS011;40838;50.676;7.838;2024-02-21T09:21:26;14.77;;;5.57;;
54935;SDS011;40838;50.676;7.838;2024-02-21T09:23:53;15.75;;;5.30;;
54935;SDS011;40838;50.676;7.838;2024-02-21T09:26:20;17.83;;;6.47;;
54935;SDS011;40838;50.676;7.838;2024-02-21T09:28:48;17.95;;;6.10;;
54935;SDS011;40838;50.676;7.838;2024-02-21T09:31:15;17.65;;;5.28;;
54935;SDS011;40838;50.676;7.838;2024-02-21T09:33:43;14.35;;;4.97;;
54935;SDS011;40838;50.676;7.838;2024-02-21T09:36:10;16.02;;;5.35;;
54935;SDS011;40838;50.676;7.838;2024-02-21T09:38:39;12.50;;;4.90;;
54935;SDS011;40838;50.676;7.838;2024-02-21T09:41:16;14.98;;;4.93;;
54935;SDS011;40838;50.676;7.838;2024-02-21T09:43:44;15.85;;;5.20;;
54935;SDS011;40838;50.676;7.838;2024-02-21T09:46:13;12.85;;;5.15;;
54935;SDS011;40838;50.676;7.838;2024-02-21T09:48:50;20.85;;;7.28;;
54935;SDS011;40838;50.676;7.838;2024-02-21T09:51:30;11.85;;;3.97;;
54935;SDS011;40838;50.676;7.838;2024-02-21T09:54:01;12.48;;;4.75;;
54935;SDS011;40838;50.676;7.838;2024-02-21T09:56:29;14.48;;;5.30;;
54935;SDS011;40838;50.676;7.838;2024-02-21T09:58:57;11.85;;;4.70;;
54935;SDS011;40838;50.676;7.838;2024-02-21T10:01:26;15.82;;;5.55;;
54935;SDS011;40838;50.676;7.838;2024-02-21T10:03:54;14.32;;;4.82;;
54935;SDS011;40838;50.676;7.838;2024-02-21T10:06:22;14.85;;;5.43;;
54935;SDS011;40838;50.676;7.838;2024-02-21T10:08:51;13.27;;;5.05;;
54935;SDS011;40838;50.676;7.838;2024-02-21T10:11:22;12.95;;;4.90;;
54935;SDS011;40838;50.676;7.838;2024-02-21T10:13:49;16.60;;;6.40;;
54935;SDS011;40838;50.676;7.838;2024-02-21T10:16:17;21.05;;;6.13;;
54935;SDS011;40838;50.676;7.838;2024-02-21T10:18:44;18.13;;;6.30;;
54935;SDS011;40838;50.676;7.838;2024-02-21T10:21:13;16.25;;;5.45;;
54935;SDS011;40838;50.676;7.838;2024-02-21T10:23:43;13.60;;;5.70;;
54935;SDS011;40838;50.676;7.838;2024-02-21T10:26:11;12.60;;;4.88;;
54935;SDS011;40838;50.676;7.838;2024-02-21T10:28:38;18.55;;;5.40;;
54935;SDS011;40838;50.676;7.838;2024-02-21T10:31:07;11.50;;;4.72;;
54935;SDS011;40838;50.676;7.838;2024-02-21T10:33:36;12.13;;;3.90;;
54935;SDS011;40838;50.676;7.838;2024-02-21T10:36:07;12.88;;;4.97;;
54935;SDS011;40838;50.676;7.838;2024-02-21T10:38:37;17.50;;;5.78;;
54935;SDS011;40838;50.676;7.838;2024-02-21T10:41:05;14.60;;;4.45;;
54935;SDS011;40838;50.676;7.838;2024-02-21T10:43:35;15.90;;;4.60;;
54935;SDS011;40838;50.676;7.838;2024-02-21T10:46:06;9.73;;;4.18;;
54935;SDS011;40838;50.676;7.838;2024-02-21T10:48:36;21.35;;;5.35;;
54935;SDS011;40838;50.676;7.838;2024-02-21T10:51:14;11.35;;;4.80;;
54935;SDS011;40838;50.676;7.838;2024-02-21T10:56:18;10.60;;;4.50;;
54935;SDS011;40838;50.676;7.838;2024-02-21T10:58:52;15.52;;;4.10;;
54935;SDS011;40838;50.676;7.838;2024-02-21T11:01:20;11.65;;;4.15;;
54935;SDS011;40838;50.676;7.838;2024-02-21T11:03:49;14.75;;;4.05;;
54935;SDS011;40838;50.676;7.838;2024-02-21T11:06:19;9.45;;;3.90;;
54935;SDS011;40838;50.676;7.838;2024-02-21T11:08:49;13.90;;;4.68;;
54935;SDS011;40838;50.676;7.838;2024-02-21T11:11:26;11.65;;;5.07;;
54935;SDS011;40838;50.676;7.838;2024-02-21T11:14:03;13.15;;;4.47;;
54935;SDS011;40838;50.676;7.838;2024-02-21T11:16:34;11.10;;;4.10;;
54935;SDS011;40838;50.676;7.838;2024-02-21T11:19:06;14.02;;;4.38;;
54935;SDS011;40838;50.676;7.838;2024-02-21T11:21:35;7.90;;;3.58;;
54935;SDS011;40838;50.676;7.838;2024-02-21T11:24:04;11.68;;;3.78;;
54935;SDS011;40838;50.676;7.838;2024-02-21T11:26:31;12.98;;;4.10;;
54935;SDS011;40838;50.676;7.838;2024-02-21T11:28:59;10.65;;;3.58;;
54935;SDS011;40838;50.676;7.838;2024-02-21T11:31:37;10.45;;;3.97;;
54935;SDS011;40838;50.676;7.838;2024-02-21T11:34:08;12.40;;;3.85;;
54935;SDS011;40838;50.676;7.838;2024-02-21T11:36:35;12.95;;;3.80;;
54935;SDS011;40838;50.676;7.838;2024-02-21T11:39:13;9.52;;;3.28;;
54935;SDS011;40838;50.676;7.838;2024-02-21T11:41:46;11.30;;;3.63;;
54935;SDS011;40838;50.676;7.838;2024-02-21T11:44:13;13.77;;;4.28;;
54935;SDS011;40838;50.676;7.838;2024-02-21T11:46:40;13.32;;;3.45;;
54935;SDS011;40838;50.676;7.838;2024-02-21T11:49:07;7.72;;;3.38;;
54935;SDS011;40838;50.676;7.838;2024-02-21T11:51:34;11.98;;;3.35;;
54935;SDS011;40838;50.676;7.838;2024-02-21T11:54:02;8.68;;;3.40;;
54935;SDS011;40838;50.676;7.838;2024-02-21T11:56:31;9.52;;;2.95;;
54935;SDS011;40838;50.676;7.838;2024-02-21T11:58:59;12.63;;;3.05;;
54935;SDS011;40838;50.676;7.838;2024-02-21T12:01:26;9.27;;;2.92;;
54935;SDS011;40838;50.676;7.838;2024-02-21T12:03:54;5.85;;;2.45;;
54935;SDS011;40838;50.676;7.838;2024-02-21T12:06:21;9.02;;;3.08;;
54935;SDS011;40838;50.676;7.838;2024-02-21T12:08:48;11.48;;;3.30;;
54935;SDS011;40838;50.676;7.838;2024-02-21T12:11:16;7.40;;;2.30;;
54935;SDS011;40838;50.676;7.838;2024-02-21T12:13:47;16.80;;;5.65;;
54935;SDS011;40838;50.676;7.838;2024-02-21T12:16:16;11.00;;;3.20;;
54935;SDS011;40838;50.676;7.838;2024-02-21T12:18:46;6.97;;;2.60;;
54935;SDS011;40838;50.676;7.838;2024-02-21T12:21:13;9.52;;;3.00;;
54935;SDS011;40838;50.676;7.838;2024-02-21T12:23:40;10.35;;;3.10;;
54935;SDS011;40838;50.676;7.838;2024-02-21T12:26:07;9.00;;;3.13;;
54935;SDS011;40838;50.676;7.838;2024-02-21T12:28:34;8.43;;;2.22;;
54935;SDS011;40838;50.676;7.838;2024-02-21T12:31:03;10.02;;;3.58;;
54935;SDS011;40838;50.676;7.838;2024-02-21T12:33:30;8.35;;;2.80;;
54935;SDS011;40838;50.676;7.838;2024-02-21T12:35:58;16.52;;;3.15;;
54935;SDS011;40838;50.676;7.838;2024-02-21T12:38:25;9.35;;;2.85;;
54935;SDS011;40838;50.676;7.838;2024-02-21T12:40:52;13.43;;;2.72;;
54935;SDS011;40838;50.676;7.838;2024-02-21T12:43:19;11.38;;;2.78;;
54935;SDS011;40838;50.676;7.838;2024-02-21T12:45:47;9.90;;;3.05;;
54935;SDS011;40838;50.676;7.838;2024-02-21T12:48:16;13.23;;;3.50;;
54935;SDS011;40838;50.676;7.838;2024-02-21T12:50:48;13.25;;;3.20;;
54935;SDS011;40838;50.676;7.838;2024-02-21T12:53:17;9.83;;;2.50;;
54935;SDS011;40838;50.676;7.838;2024-02-21T12:55:44;9.07;;;3.65;;
54935;SDS011;40838;50.676;7.838;2024-02-21T12:58:11;11.55;;;3.13;;
54935;SDS011;40838;50.676;7.838;2024-02-21T13:00:39;11.18;;;2.88;;
54935;SDS011;40838;50.676;7.838;2024-02-21T13:03:06;6.22;;;2.17;;
54935;SDS011;40838;50.676;7.838;2024-02-21T13:05:36;9.23;;;3.60;;
54935;SDS011;40838;50.676;7.838;2024-02-21T13:08:04;5.03;;;2.03;;
54935;SDS011;40838;50.676;7.838;2024-02-21T13:10:31;12.25;;;2.80;;
54935;SDS011;40838;50.676;7.838;2024-02-21T13:12:59;10.13;;;2.97;;
54935;SDS011;40838;50.676;7.838;2024-02-21T13:15:27;11.57;;;3.22;;
54935;SDS011;40838;50.676;7.838;2024-02-21T13:17:54;14.05;;;3.83;;
54935;SDS011;40838;50.676;7.838;2024-02-21T13:20:22;9.77;;;3.15;;
54935;SDS011;40838;50.676;7.838;2024-02-21T13:22:51;9.60;;;3.53;;
54935;SDS011;40838;50.676;7.838;2024-02-21T13:25:18;6.57;;;2.35;;
54935;SDS011;40838;50.676;7.838;2024-02-21T13:27:46;10.52;;;2.30;;
54935;SDS011;40838;50.676;7.838;2024-02-21T13:30:14;10.82;;;2.40;;
54935;SDS011;40838;50.676;7.838;2024-02-21T13:32:43;6.25;;;2.83;;
54935;SDS011;40838;50.676;7.838;2024-02-21T13:35:11;15.23;;;3.47;;
54935;SDS011;40838;50.676;7.838;2024-02-21T13:37:38;11.00;;;3.17;;
54935;SDS011;40838;50.676;7.838;2024-02-21T13:40:07;9.32;;;3.03;;
54935;SDS011;40838;50.676;7.838;2024-02-21T13:42:35;7.80;;;2.50;;
54935;SDS011;40838;50.676;7.838;2024-02-21T13:45:03;8.98;;;1.65;;
54935;SDS011;40838;50.676;7.838;2024-02-21T13:47:31;7.32;;;2.03;;
54935;SDS011;40838;50.676;7.838;2024-02-21T13:49:58;7.80;;;2.10;;
54935;SDS011;40838;50.676;7.838;2024-02-21T13:52:25;7.25;;;1.90;;
54935;SDS011;40838;50.676;7.838;2024-02-21T13:54:52;7.20;;;2.13;;
54935;SDS011;40838;50.676;7.838;2024-02-21T13:57:20;5.82;;;1.77;;
54935;SDS011;40838;50.676;7.838;2024-02-21T13:59:48;8.57;;;1.80;;
54935;SDS011;40838;50.676;7.838;2024-02-21T14:02:16;4.65;;;1.73;;
54935;SDS011;40838;50.676;7.838;2024-02-21T14:04:43;6.60;;;2.13;;
54935;SDS011;40838;50.676;7.838;2024-02-21T14:07:10;4.80;;;1.75;;
54935;SDS011;40838;50.676;7.838;2024-02-21T14:09:37;9.23;;;2.10;;
54935;SDS011;40838;50.676;7.838;2024-02-21T14:12:04;8.10;;;2.55;;
54935;SDS011;40838;50.676;7.838;2024-02-21T14:14:35;6.57;;;1.80;;
54935;SDS011;40838;50.676;7.838;2024-02-21T14:17:02;7.00;;;1.77;;
54935;SDS011;40838;50.676;7.838;2024-02-21T14:19:30;7.93;;;2.20;;
54935;SDS011;40838;50.676;7.838;2024-02-21T14:21:57;4.13;;;1.50;;
54935;SDS011;40838;50.676;7.838;2024-02-21T14:24:24;7.20;;;1.63;;
54935;SDS011;40838;50.676;7.838;2024-02-21T14:26:53;6.65;;;1.70;;
54935;SDS011;40838;50.676;7.838;2024-02-21T14:29:20;7.68;;;1.88;;
54935;SDS011;40838;50.676;7.838;2024-02-21T14:31:49;7.90;;;2.22;;
54935;SDS011;40838;50.676;7.838;2024-02-21T14:34:16;5.80;;;1.85;;
54935;SDS011;40838;50.676;7.838;2024-02-21T14:36:44;12.43;;;2.10;;
54935;SDS011;40838;50.676;7.838;2024-02-21T14:39:11;5.10;;;1.48;;
54935;SDS011;40838;50.676;7.838;2024-02-21T14:41:38;6.10;;;1.80;;
54935;SDS011;40838;50.676;7.838;2024-02-21T14:44:05;4.43;;;2.22;;